Cable, Illinois
Current Conditions -  °F | °C
As of 9:52 AM on Sunday 21 Dec 2014 (Local Time) from KMLI Reporting Station
Overcast Overcast  
Wind Chill: 30°   Ceiling: 2800
Heat Index: 38°   Visibility: 8mi
Dew Point: 33°   Wind: 12mph
Humidity: 83%   Direction: 180°S
Pressure: 30.11"   Gusts: NA
Location:  41.2864°N, 90.4945°W
Report Text: KMLI 211552Z 18010KT 8SM OVC028 03/01 A3011 RMK AO2 SLP202 T00330006
Loading
Personal Weather Stations






























Interactive Weather Map New forecast layout! Learn more

10-Day Weather Forecast

Advertisements
Track Severe Weather on mobile